Time;durP1;ratioP1;P1;durP2;ratioP2;P2;SDS_P1;SDS_P2;PMS_P1;PMS_P2;Temp;Humidity;BMP_temperature;BMP_pressure;BME280_temperature;BME280_humidity;BME280_pressure;Samples;Min_cycle;Max_cycle;Signal;HPM_P1;HPM_P2
2024/03/22 00:01:47;;;;;;;1.10;1.10;;;11.80;99.90;;;;;;5085714;28;20241;-79
2024/03/22 00:04:15;;;;;;;1.58;1.25;;;11.80;99.90;;;;;;5087104;28;20297;-75
2024/03/22 00:06:42;;;;;;;1.67;1.58;;;11.70;99.90;;;;;;5090057;28;20631;-81
2024/03/22 00:09:09;;;;;;;1.30;1.30;;;11.80;99.90;;;;;;5092844;28;20549;-77
2024/03/22 00:11:39;;;;;;;1.50;1.40;;;11.80;99.90;;;;;;5093140;28;20224;-79
2024/03/22 00:14:06;;;;;;;1.30;1.30;;;11.80;99.90;;;;;;5088318;28;20922;-77
2024/03/22 00:16:32;;;;;;;1.60;1.50;;;11.80;99.90;;;;;;5093101;28;20260;-81
2024/03/22 00:19:00;;;;;;;1.20;1.20;;;11.80;99.90;;;;;;5089011;28;20310;-81
2024/03/22 00:21:26;;;;;;;1.50;1.45;;;11.80;99.90;;;;;;5085899;28;20221;-84
2024/03/22 00:23:53;;;;;;;1.17;1.17;;;11.70;99.90;;;;;;5099246;28;20679;-75
2024/03/22 00:26:19;;;;;;;1.70;1.60;;;11.60;99.90;;;;;;5091910;28;20271;-79
2024/03/22 00:28:46;;;;;;;1.33;1.30;;;11.50;99.90;;;;;;5083130;28;20237;-78
2024/03/22 00:31:12;;;;;;;1.30;1.30;;;11.50;99.90;;;;;;5086532;28;20218;-84
2024/03/22 00:33:39;;;;;;;1.10;1.10;;;11.40;99.90;;;;;;5093118;28;20213;-84
2024/03/22 00:36:08;;;;;;;1.40;1.40;;;11.30;99.90;;;;;;5094515;28;20248;-78
2024/03/22 00:38:35;;;;;;;1.40;1.40;;;11.30;99.90;;;;;;5095022;28;20222;-74
2024/03/22 00:41:00;;;;;;;1.40;1.30;;;11.30;99.90;;;;;;5095816;28;20222;-75
2024/03/22 00:43:27;;;;;;;1.52;1.42;;;11.30;99.90;;;;;;5099301;28;20266;-78
2024/03/22 00:45:53;;;;;;;1.50;1.40;;;11.20;99.90;;;;;;5094718;28;20225;-77
2024/03/22 00:48:20;;;;;;;1.52;1.45;;;11.20;99.90;;;;;;5093361;28;20282;-81
2024/03/22 00:50:46;;;;;;;1.35;1.35;;;11.10;99.90;;;;;;5098070;28;20239;-78
2024/03/22 00:53:14;;;;;;;1.75;1.65;;;11.10;99.90;;;;;;5092921;28;20209;-81
2024/03/22 00:55:40;;;;;;;1.50;1.50;;;11.00;99.90;;;;;;5089478;28;20224;-75
2024/03/22 00:58:07;;;;;;;1.15;1.15;;;11.00;99.90;;;;;;5091964;28;20249;-86
2024/03/22 01:00:33;;;;;;;1.23;1.23;;;11.00;99.90;;;;;;5097339;28;20217;-79
2024/03/22 01:03:00;;;;;;;1.58;1.50;;;11.00;99.90;;;;;;5091944;28;20286;-82
2024/03/22 01:05:26;;;;;;;1.20;1.20;;;11.00;99.90;;;;;;5095328;28;20275;-78
2024/03/22 01:07:53;;;;;;;1.35;1.25;;;11.00;99.90;;;;;;5089190;28;20214;-77
2024/03/22 01:10:20;;;;;;;1.52;1.48;;;11.00;99.90;;;;;;5088521;28;20233;-77
2024/03/22 01:12:47;;;;;;;1.08;1.08;;;11.00;99.90;;;;;;5088848;28;20912;-79
2024/03/22 01:15:13;;;;;;;1.00;1.00;;;11.10;99.90;;;;;;5089914;28;20243;-85
2024/03/22 01:17:40;;;;;;;1.73;1.63;;;11.00;99.90;;;;;;5088423;28;20218;-77
2024/03/22 01:20:07;;;;;;;1.65;1.20;;;11.10;99.90;;;;;;5092781;28;20253;-80
2024/03/22 01:22:34;;;;;;;1.40;1.40;;;11.00;99.90;;;;;;5089821;28;20217;-77
2024/03/22 01:25:00;;;;;;;1.02;1.02;;;11.00;99.90;;;;;;5098694;28;20263;-82
2024/03/22 01:27:28;;;;;;;1.10;1.10;;;11.00;99.90;;;;;;5089321;28;20218;-80
2024/03/22 01:29:54;;;;;;;1.30;1.30;;;11.00;99.90;;;;;;5092853;28;20206;-80
2024/03/22 01:32:21;;;;;;;1.15;1.15;;;10.90;99.90;;;;;;5093267;28;20218;-79
2024/03/22 01:34:47;;;;;;;1.40;1.40;;;10.80;99.90;;;;;;5098888;28;20225;-82
2024/03/22 01:37:14;;;;;;;1.15;1.15;;;10.80;99.90;;;;;;5089564;28;20218;-83
2024/03/22 01:39:40;;;;;;;1.50;1.40;;;10.80;99.90;;;;;;5096359;28;20246;-77
2024/03/22 01:42:07;;;;;;;1.70;1.60;;;10.70;99.90;;;;;;5092794;28;20217;-75
2024/03/22 01:44:34;;;;;;;1.60;1.50;;;10.60;99.90;;;;;;5091481;28;20205;-75
2024/03/22 01:47:01;;;;;;;1.58;1.58;;;10.50;99.90;;;;;;5094317;28;20210;-77
2024/03/22 01:49:27;;;;;;;1.63;1.58;;;10.50;99.90;;;;;;5086282;28;20770;-85
2024/03/22 01:51:54;;;;;;;1.75;1.38;;;10.50;99.90;;;;;;5089702;28;20214;-78
2024/03/22 01:54:21;;;;;;;1.45;1.45;;;10.50;99.90;;;;;;5088474;28;20304;-78
2024/03/22 01:56:48;;;;;;;1.23;1.23;;;10.50;99.90;;;;;;5085132;28;20222;-77
2024/03/22 01:59:14;;;;;;;1.58;1.58;;;10.40;99.90;;;;;;5087088;28;20259;-78
2024/03/22 02:01:43;;;;;;;1.30;1.30;;;10.40;99.90;;;;;;5085641;28;20221;-81
2024/03/22 02:04:10;;;;;;;1.33;1.33;;;10.40;99.90;;;;;;5085777;28;20280;-78
2024/03/22 02:06:37;;;;;;;1.40;1.40;;;10.40;99.90;;;;;;5086111;28;20217;-78
2024/03/22 02:09:04;;;;;;;1.30;1.30;;;10.40;99.90;;;;;;5088206;28;20271;-79
2024/03/22 02:11:32;;;;;;;1.42;1.42;;;10.40;99.90;;;;;;5089696;28;20224;-76
2024/03/22 02:13:58;;;;;;;1.40;1.40;;;10.40;99.90;;;;;;5091214;28;20277;-78
2024/03/22 02:16:24;;;;;;;1.30;1.30;;;10.40;99.90;;;;;;5089912;28;20217;-79
2024/03/22 02:18:52;;;;;;;1.20;1.20;;;10.40;99.90;;;;;;5086191;28;20214;-82
2024/03/22 02:21:19;;;;;;;1.40;1.40;;;10.40;99.90;;;;;;5087154;28;20237;-76
2024/03/22 02:23:46;;;;;;;1.40;1.30;;;10.40;99.90;;;;;;5093082;28;20202;-85
2024/03/22 02:26:13;;;;;;;1.40;1.40;;;10.40;99.90;;;;;;5088354;28;20278;-78
2024/03/22 02:28:39;;;;;;;1.27;1.27;;;10.40;99.90;;;;;;5098226;28;20563;-81
2024/03/22 02:31:06;;;;;;;1.20;1.20;;;10.40;99.90;;;;;;5096293;28;20243;-78
2024/03/22 02:33:32;;;;;;;1.33;1.33;;;10.40;99.90;;;;;;5090431;28;20267;-78
2024/03/22 02:35:59;;;;;;;1.73;1.63;;;10.40;99.90;;;;;;5086443;28;20217;-75
2024/03/22 02:38:25;;;;;;;1.20;1.20;;;10.30;99.90;;;;;;5093517;28;21474;-77
2024/03/22 02:40:54;;;;;;;1.60;1.50;;;10.20;99.90;;;;;;5086515;28;20213;-76
2024/03/22 02:43:21;;;;;;;1.45;1.45;;;10.20;99.90;;;;;;5090113;28;20217;-77
2024/03/22 02:45:48;;;;;;;1.38;1.38;;;10.10;99.90;;;;;;5087511;28;20259;-78
2024/03/22 02:48:14;;;;;;;1.38;1.38;;;10.10;99.90;;;;;;5090407;27;20959;-80
2024/03/22 02:50:42;;;;;;;1.40;1.40;;;10.10;99.90;;;;;;5090932;28;20216;-78
2024/03/22 02:53:08;;;;;;;1.50;1.50;;;10.10;99.90;;;;;;5087608;28;20331;-76
2024/03/22 02:55:38;;;;;;;1.35;1.35;;;10.00;99.90;;;;;;5085254;28;20637;-78
2024/03/22 02:58:06;;;;;;;1.35;1.35;;;10.00;99.90;;;;;;5088823;28;20235;-76
2024/03/22 03:00:37;;;;;;;1.50;1.50;;;10.00;99.90;;;;;;5091366;28;20217;-84
2024/03/22 03:03:03;;;;;;;1.75;1.65;;;10.00;99.90;;;;;;5088851;28;20820;-80
2024/03/22 03:05:30;;;;;;;1.83;1.73;;;10.00;99.90;;;;;;5078664;28;20277;-81
2024/03/22 03:07:56;;;;;;;1.30;1.30;;;10.00;99.90;;;;;;5089518;28;20213;-79
2024/03/22 03:10:23;;;;;;;1.38;1.38;;;10.00;99.90;;;;;;5087657;28;20230;-77
2024/03/22 03:12:49;;;;;;;1.48;1.48;;;10.00;99.90;;;;;;5090991;28;20271;-82
2024/03/22 03:15:17;;;;;;;1.35;1.35;;;10.00;99.90;;;;;;5091731;28;20222;-75
2024/03/22 03:17:43;;;;;;;1.67;1.58;;;10.00;99.90;;;;;;5081577;28;20242;-80
2024/03/22 03:20:13;;;;;;;1.50;1.50;;;9.90;99.90;;;;;;5086217;28;20266;-76
2024/03/22 03:22:39;;;;;;;1.35;1.35;;;9.90;99.90;;;;;;5080084;28;20225;-77
2024/03/22 03:25:07;;;;;;;1.60;1.60;;;9.80;99.90;;;;;;5083044;28;20217;-77
2024/03/22 03:27:33;;;;;;;1.30;1.30;;;9.80;99.90;;;;;;5075128;28;20222;-78
2024/03/22 03:30:00;;;;;;;2.55;1.55;;;9.80;99.90;;;;;;5088024;28;20908;-76
2024/03/22 03:32:27;;;;;;;1.90;1.80;;;9.80;99.90;;;;;;5079990;28;20291;-77
2024/03/22 03:34:54;;;;;;;1.60;1.60;;;9.70;99.90;;;;;;5087226;28;20214;-80
2024/03/22 03:37:20;;;;;;;1.80;1.70;;;9.70;99.90;;;;;;5077936;28;20303;-80
2024/03/22 03:39:47;;;;;;;1.27;1.20;;;9.70;99.90;;;;;;5080378;28;20246;-77
2024/03/22 03:42:13;;;;;;;1.20;1.20;;;9.70;99.90;;;;;;5079959;28;21096;-80
2024/03/22 03:44:41;;;;;;;1.80;1.70;;;9.70;99.90;;;;;;5078526;28;20307;-81
2024/03/22 03:47:07;;;;;;;1.63;1.52;;;9.70;99.90;;;;;;5083831;28;20222;-77
2024/03/22 03:49:35;;;;;;;1.45;1.45;;;9.70;99.90;;;;;;5088067;28;20361;-84
2024/03/22 03:52:01;;;;;;;1.00;1.00;;;9.70;99.90;;;;;;5088413;28;20236;-77
2024/03/22 03:54:29;;;;;;;1.60;1.50;;;9.70;99.90;;;;;;5088153;28;20863;-79
2024/03/22 03:56:55;;;;;;;1.92;1.60;;;9.70;99.90;;;;;;5066507;28;20638;-76
2024/03/22 03:59:22;;;;;;;1.45;1.35;;;9.60;99.90;;;;;;5060886;28;20302;-77
2024/03/22 04:01:47;;;;;;;1.50;1.50;;;9.60;99.90;;;;;;5071953;28;20245;-75
2024/03/22 04:04:15;;;;;;;1.20;1.20;;;9.60;99.90;;;;;;5090379;28;20760;-75
2024/03/22 04:06:44;;;;;;;1.83;1.70;;;9.60;99.90;;;;;;5072004;28;20295;-79
2024/03/22 04:09:11;;;;;;;1.60;1.60;;;9.60;99.90;;;;;;5085472;28;20221;-90
2024/03/22 04:11:37;;;;;;;1.80;1.70;;;9.60;99.90;;;;;;5071284;28;20222;-77
2024/03/22 04:14:05;;;;;;;1.63;1.52;;;9.60;99.90;;;;;;5084009;28;20209;-76
2024/03/22 04:16:31;;;;;;;1.60;1.58;;;9.60;99.90;;;;;;5079125;28;20306;-74
2024/03/22 04:18:58;;;;;;;1.52;1.52;;;9.50;99.90;;;;;;5083403;28;20232;-75
2024/03/22 04:21:23;;;;;;;1.80;1.70;;;9.50;99.90;;;;;;5080258;28;20291;-75
2024/03/22 04:23:52;;;;;;;1.50;1.40;;;9.50;99.90;;;;;;5086061;28;20229;-77
2024/03/22 04:26:18;;;;;;;1.35;1.35;;;9.50;99.90;;;;;;5079059;28;20387;-75
2024/03/22 04:28:45;;;;;;;1.55;1.45;;;9.50;99.90;;;;;;5082787;28;20237;-77
2024/03/22 04:31:11;;;;;;;1.40;1.40;;;9.50;99.90;;;;;;5085624;28;20249;-76
2024/03/22 04:33:38;;;;;;;1.77;1.67;;;9.50;99.90;;;;;;5088877;28;20302;-82
2024/03/22 04:36:05;;;;;;;1.60;1.60;;;9.50;99.90;;;;;;5092135;27;20267;-78
2024/03/22 04:38:32;;;;;;;1.90;1.80;;;9.40;99.90;;;;;;5089924;28;20887;-79
2024/03/22 04:41:01;;;;;;;1.40;1.40;;;9.40;99.90;;;;;;5088156;27;20575;-76
2024/03/22 04:43:27;;;;;;;1.60;1.60;;;9.30;99.90;;;;;;5086704;28;20596;-78
2024/03/22 04:45:54;;;;;;;1.63;1.60;;;9.30;99.90;;;;;;5091995;28;20292;-76
2024/03/22 04:48:21;;;;;;;1.40;1.40;;;9.30;99.90;;;;;;5087263;28;20272;-77
2024/03/22 04:50:50;;;;;;;1.73;1.63;;;9.30;99.90;;;;;;5090334;28;20293;-82
2024/03/22 04:53:16;;;;;;;1.77;1.67;;;9.40;99.90;;;;;;5091836;28;20221;-87
2024/03/22 04:55:44;;;;;;;1.95;1.85;;;9.40;99.90;;;;;;5088421;28;20214;-84
2024/03/22 04:58:13;;;;;;;1.80;1.70;;;9.30;99.90;;;;;;5067359;28;20230;-78
2024/03/22 05:00:40;;;;;;;1.92;1.83;;;9.30;99.90;;;;;;5074756;28;20321;-76
2024/03/22 05:03:06;;;;;;;1.70;1.60;;;9.30;99.90;;;;;;5090322;28;20274;-82
2024/03/22 05:05:34;;;;;;;2.30;2.20;;;9.30;99.90;;;;;;5096270;28;20698;-77
2024/03/22 05:08:01;;;;;;;2.22;2.13;;;9.30;99.90;;;;;;5093464;28;20221;-81
2024/03/22 05:10:28;;;;;;;2.10;2.00;;;9.30;99.90;;;;;;5091113;28;20213;-78
2024/03/22 05:12:54;;;;;;;2.00;1.90;;;9.30;99.90;;;;;;5094861;28;20248;-81
2024/03/22 05:15:23;;;;;;;1.80;1.70;;;9.30;99.90;;;;;;5088903;28;20221;-76
2024/03/22 05:17:49;;;;;;;1.92;1.83;;;9.30;99.90;;;;;;5080760;28;20265;-80
2024/03/22 05:20:16;;;;;;;1.90;1.80;;;9.30;99.90;;;;;;5061683;28;20794;-79
2024/03/22 05:22:42;;;;;;;1.73;1.63;;;9.20;99.90;;;;;;5082891;28;20213;-81
2024/03/22 05:25:10;;;;;;;1.73;1.65;;;9.20;99.90;;;;;;5088306;28;20210;-81
2024/03/22 05:27:36;;;;;;;1.77;1.70;;;9.20;99.90;;;;;;5076024;28;20218;-76
2024/03/22 05:30:04;;;;;;;1.70;1.67;;;9.20;99.90;;;;;;5090288;28;20217;-78
2024/03/22 05:32:32;;;;;;;2.03;1.92;;;9.20;99.90;;;;;;5069848;28;20663;-75
2024/03/22 05:34:58;;;;;;;1.88;1.77;;;9.20;99.90;;;;;;5065174;28;20277;-81
2024/03/22 05:37:24;;;;;;;2.08;1.90;;;9.20;99.90;;;;;;5081490;28;20241;-79
2024/03/22 05:39:51;;;;;;;1.70;1.60;;;9.20;99.90;;;;;;5081256;28;20363;-79
2024/03/22 05:42:17;;;;;;;2.00;1.90;;;9.30;99.90;;;;;;5082856;28;20298;-75
2024/03/22 05:44:45;;;;;;;1.98;1.88;;;9.30;99.90;;;;;;5091350;28;20225;-78
2024/03/22 05:47:11;;;;;;;1.98;1.88;;;9.30;99.90;;;;;;5090381;28;20225;-78
2024/03/22 05:49:39;;;;;;;2.00;1.90;;;9.30;99.90;;;;;;5084252;28;20799;-79
2024/03/22 05:52:06;;;;;;;1.92;1.77;;;9.30;99.90;;;;;;5089022;28;20217;-77
2024/03/22 05:54:32;;;;;;;2.10;2.00;;;9.30;99.90;;;;;;5086948;28;20632;-80
2024/03/22 05:57:00;;;;;;;2.50;2.28;;;9.40;99.90;;;;;;5086936;28;20273;-78
2024/03/22 05:59:27;;;;;;;2.38;2.28;;;9.40;99.90;;;;;;5088333;28;20828;-78
2024/03/22 06:01:54;;;;;;;2.30;2.20;;;9.60;99.90;;;;;;5082060;28;20711;-76
2024/03/22 06:04:20;;;;;;;1.95;1.85;;;9.80;99.90;;;;;;5087672;28;20221;-76
2024/03/22 06:06:48;;;;;;;1.98;1.88;;;10.20;99.90;;;;;;5077648;28;20214;-82
2024/03/22 06:09:23;;;;;;;1.85;1.75;;;10.60;99.90;;;;;;5061403;28;20229;-77
2024/03/22 06:11:50;;;;;;;1.77;1.67;;;11.00;99.90;;;;;;5081558;28;20803;-80
2024/03/22 06:14:17;;;;;;;1.95;1.85;;;11.40;99.90;;;;;;5095779;28;20855;-75
2024/03/22 06:16:44;;;;;;;3.63;1.60;;;11.70;99.90;;;;;;5090815;28;20209;-76
2024/03/22 06:19:10;;;;;;;2.25;1.85;;;12.10;99.90;;;;;;5086466;28;20308;-78
2024/03/22 06:21:37;;;;;;;1.70;1.60;;;12.60;99.90;;;;;;5086941;28;20209;-79
2024/03/22 06:24:05;;;;;;;1.80;1.70;;;13.10;99.90;;;;;;5094779;28;20196;-79
2024/03/22 06:26:32;;;;;;;2.55;2.10;;;13.30;99.90;;;;;;5087175;28;20681;-76
2024/03/22 06:28:58;;;;;;;2.10;1.83;;;13.40;99.90;;;;;;5086738;28;20247;-82
2024/03/22 06:31:25;;;;;;;2.00;1.90;;;13.60;99.90;;;;;;5089303;28;20221;-78
2024/03/22 06:33:50;;;;;;;1.80;1.70;;;13.80;99.90;;;;;;5087301;28;21038;-77
2024/03/22 06:36:18;;;;;;;2.05;1.95;;;13.90;99.90;;;;;;5087983;28;20225;-78
2024/03/22 06:38:45;;;;;;;1.80;1.70;;;14.00;99.90;;;;;;5086053;28;20218;-79
2024/03/22 06:41:12;;;;;;;1.70;1.60;;;14.00;99.90;;;;;;5086867;28;20289;-75
2024/03/22 06:43:40;;;;;;;2.25;1.70;;;14.00;99.90;;;;;;5086341;28;20450;-80
2024/03/22 06:46:06;;;;;;;1.88;1.77;;;14.20;99.90;;;;;;5087629;28;20213;-78
2024/03/22 06:48:33;;;;;;;2.20;2.10;;;14.40;99.90;;;;;;5080818;28;20225;-79
2024/03/22 06:50:59;;;;;;;2.05;1.90;;;14.60;99.90;;;;;;5090851;28;20244;-80
2024/03/22 06:53:27;;;;;;;3.05;2.00;;;14.90;99.90;;;;;;5094379;28;20188;-79
2024/03/22 06:55:53;;;;;;;1.73;1.63;;;15.10;99.90;;;;;;5080753;28;20217;-78
2024/03/22 06:58:21;;;;;;;3.40;1.80;;;15.20;99.90;;;;;;5092438;28;20308;-76
2024/03/22 07:00:47;;;;;;;2.17;1.98;;;15.30;99.90;;;;;;5086708;28;20732;-84
2024/03/22 07:03:14;;;;;;;2.20;1.80;;;15.30;99.90;;;;;;5089748;28;20275;-81
2024/03/22 07:05:40;;;;;;;1.63;1.52;;;15.30;99.90;;;;;;5092167;28;20240;-81
2024/03/22 07:08:07;;;;;;;2.28;1.70;;;15.50;99.90;;;;;;5079856;28;20287;-80
2024/03/22 07:10:33;;;;;;;1.83;1.73;;;15.70;99.90;;;;;;5081189;28;20221;-75
2024/03/22 07:13:01;;;;;;;1.63;1.52;;;15.90;99.90;;;;;;5074502;28;20846;-76
2024/03/22 07:15:31;;;;;;;1.90;1.80;;;15.90;99.90;;;;;;5066732;28;20225;-75
2024/03/22 07:17:58;;;;;;;2.00;1.90;;;16.10;99.90;;;;;;5073648;28;20319;-79
2024/03/22 07:20:24;;;;;;;2.05;1.83;;;16.30;99.90;;;;;;5089599;28;20708;-82
2024/03/22 07:22:51;;;;;;;2.00;1.85;;;16.50;99.90;;;;;;5083914;28;20776;-86
2024/03/22 07:25:17;;;;;;;2.90;2.10;;;16.70;99.90;;;;;;5084653;28;20220;-79
2024/03/22 07:27:46;;;;;;;2.20;2.00;;;16.80;99.90;;;;;;5090147;28;20213;-78
2024/03/22 07:30:12;;;;;;;2.70;1.83;;;16.70;99.90;;;;;;5086070;28;20209;-78
2024/03/22 07:32:40;;;;;;;2.00;1.90;;;16.70;99.90;;;;;;5087005;28;20243;-77
2024/03/22 07:35:07;;;;;;;1.90;1.80;;;16.90;99.90;;;;;;5067682;28;20258;-77
2024/03/22 07:37:34;;;;;;;1.55;1.45;;;16.90;99.90;;;;;;5081779;28;20225;-79
2024/03/22 07:40:00;;;;;;;1.83;1.73;;;16.80;99.90;;;;;;5084496;28;20793;-77
2024/03/22 07:42:27;;;;;;;1.90;1.80;;;16.90;99.90;;;;;;5072739;28;20222;-77
2024/03/22 07:44:52;;;;;;;2.05;1.70;;;16.60;99.90;;;;;;5085850;28;20724;-79
2024/03/22 07:47:20;;;;;;;2.92;2.00;;;16.60;99.90;;;;;;5074484;28;20225;-76
2024/03/22 07:49:47;;;;;;;1.63;1.52;;;16.80;99.90;;;;;;5064745;28;20222;-86
2024/03/22 07:52:14;;;;;;;2.35;1.98;;;17.00;99.90;;;;;;5066417;28;20214;-77
2024/03/22 07:54:40;;;;;;;2.80;2.00;;;16.90;99.90;;;;;;5066203;28;20218;-76
2024/03/22 07:57:07;;;;;;;1.50;1.40;;;16.80;99.90;;;;;;5089231;28;20213;-78
2024/03/22 07:59:32;;;;;;;2.30;1.92;;;16.80;99.90;;;;;;5088933;28;20225;-76
2024/03/22 08:02:00;;;;;;;2.33;1.85;;;16.90;99.90;;;;;;5066282;28;20214;-78
2024/03/22 08:04:26;;;;;;;1.88;1.70;;;17.00;99.90;;;;;;5058021;28;20302;-77
2024/03/22 08:06:54;;;;;;;1.98;1.67;;;17.20;99.90;;;;;;5072448;28;20293;-78
2024/03/22 08:09:20;;;;;;;2.00;1.65;;;17.40;99.90;;;;;;5097652;28;20317;-76
2024/03/22 08:11:47;;;;;;;1.73;1.63;;;17.60;99.90;;;;;;5073649;28;20226;-78
2024/03/22 08:14:13;;;;;;;2.30;1.88;;;17.40;99.90;;;;;;5063141;28;20215;-80
2024/03/22 08:16:40;;;;;;;2.28;1.90;;;17.30;99.90;;;;;;5072429;28;20228;-76
2024/03/22 08:19:06;;;;;;;1.90;1.80;;;17.60;99.90;;;;;;5076512;28;20964;-77
2024/03/22 08:21:34;;;;;;;2.13;1.92;;;17.40;99.90;;;;;;5085094;28;20253;-78
2024/03/22 08:24:01;;;;;;;3.05;1.80;;;17.50;99.90;;;;;;5087289;28;20293;-80
2024/03/22 08:26:28;;;;;;;2.00;1.77;;;17.80;99.90;;;;;;5083328;28;20596;-81
2024/03/22 08:28:54;;;;;;;2.58;1.80;;;18.00;99.90;;;;;;5084152;28;20277;-83
2024/03/22 08:31:25;;;;;;;2.15;2.03;;;18.10;99.90;;;;;;5084123;28;20245;-80
2024/03/22 08:33:51;;;;;;;3.13;2.03;;;18.10;99.90;;;;;;5082434;28;20214;-80
2024/03/22 08:36:18;;;;;;;3.95;2.25;;;18.20;99.90;;;;;;5085960;28;20844;-77
2024/03/22 08:38:44;;;;;;;1.95;1.70;;;18.10;99.90;;;;;;5090095;28;20214;-78
2024/03/22 08:41:12;;;;;;;6.43;2.08;;;18.20;99.90;;;;;;5094529;28;20796;-77
2024/03/22 08:43:38;;;;;;;2.35;2.00;;;18.40;99.90;;;;;;5087613;28;20241;-81
2024/03/22 08:46:05;;;;;;;2.55;1.90;;;18.50;99.90;;;;;;5086834;28;20271;-80
2024/03/22 08:48:31;;;;;;;2.20;2.00;;;18.60;99.90;;;;;;5092165;28;20263;-79
2024/03/22 08:50:58;;;;;;;1.80;1.70;;;18.80;99.90;;;;;;5079290;28;20215;-78
2024/03/22 08:53:24;;;;;;;2.30;2.10;;;18.90;99.90;;;;;;5057441;28;20211;-77
2024/03/22 08:55:51;;;;;;;3.80;2.15;;;19.00;99.90;;;;;;5076866;28;20224;-80
2024/03/22 08:58:19;;;;;;;2.05;1.85;;;18.70;99.90;;;;;;5077615;28;20688;-77
2024/03/22 09:00:46;;;;;;;1.83;1.73;;;18.20;99.90;;;;;;5084569;28;20229;-77
2024/03/22 09:03:12;;;;;;;1.80;1.70;;;18.20;99.90;;;;;;5094144;28;20950;-77
2024/03/22 09:05:39;;;;;;;1.90;1.77;;;18.30;99.90;;;;;;5081854;28;20296;-76
2024/03/22 09:08:05;;;;;;;2.83;1.70;;;18.40;99.90;;;;;;5086507;28;20321;-75
2024/03/22 09:10:32;;;;;;;2.03;1.80;;;18.50;99.90;;;;;;5082256;28;20232;-76
2024/03/22 09:12:58;;;;;;;1.88;1.77;;;18.50;99.90;;;;;;5082015;28;20723;-80
2024/03/22 09:15:26;;;;;;;2.25;1.98;;;18.60;99.90;;;;;;5082878;28;20249;-76
2024/03/22 09:17:52;;;;;;;2.33;2.08;;;18.70;99.90;;;;;;5078583;28;20305;-76
2024/03/22 09:20:19;;;;;;;2.00;1.80;;;18.50;99.90;;;;;;5079775;28;20226;-76
2024/03/22 09:22:46;;;;;;;1.75;1.40;;;18.50;99.90;;;;;;5084681;28;20308;-77
2024/03/22 09:25:13;;;;;;;1.90;1.70;;;18.60;99.90;;;;;;5078458;28;20209;-75
2024/03/22 09:27:39;;;;;;;1.60;1.50;;;19.00;99.90;;;;;;5082084;28;20248;-77
2024/03/22 09:30:07;;;;;;;1.83;1.48;;;19.40;99.90;;;;;;5082036;28;20241;-75
2024/03/22 09:32:35;;;;;;;3.30;1.80;;;19.70;99.90;;;;;;5075945;28;20225;-75
2024/03/22 09:35:02;;;;;;;4.88;1.50;;;19.90;99.90;;;;;;5081290;28;20233;-74
2024/03/22 09:37:27;;;;;;;1.98;1.50;;;19.60;99.90;;;;;;5082169;28;20301;-74
2024/03/22 09:39:54;;;;;;;1.70;1.60;;;19.30;99.90;;;;;;5083556;28;20708;-75
2024/03/22 09:42:23;;;;;;;2.55;1.60;;;19.40;99.90;;;;;;5081611;28;20702;-74
2024/03/22 09:44:51;;;;;;;1.95;1.85;;;19.50;99.90;;;;;;5081745;28;20255;-75
2024/03/22 09:47:17;;;;;;;2.65;1.50;;;19.30;99.90;;;;;;5078386;28;20213;-73
2024/03/22 09:49:48;;;;;;;1.50;1.40;;;19.30;99.90;;;;;;5080405;28;20312;-73
2024/03/22 09:52:14;;;;;;;2.90;1.60;;;19.50;99.90;;;;;;5080783;28;20612;-75
2024/03/22 09:54:42;;;;;;;3.25;1.30;;;19.50;99.90;;;;;;5076885;28;20235;-75
2024/03/22 09:57:11;;;;;;;1.52;1.42;;;19.30;99.90;;;;;;5083553;28;20315;-73
2024/03/22 09:59:39;;;;;;;2.10;1.40;;;19.30;99.90;;;;;;5083425;28;20762;-73
2024/03/22 10:02:07;;;;;;;1.70;1.60;;;19.40;99.90;;;;;;5081084;28;20303;-74
2024/03/22 10:04:35;;;;;;;1.60;1.50;;;19.50;99.90;;;;;;5081986;28;21016;-75
2024/03/22 10:07:04;;;;;;;1.50;1.40;;;19.60;99.90;;;;;;5084423;28;20808;-75
2024/03/22 10:09:32;;;;;;;1.40;1.30;;;19.70;99.90;;;;;;5080514;28;20220;-75
2024/03/22 10:11:58;;;;;;;3.47;1.52;;;19.70;99.90;;;;;;5076762;28;20213;-75
2024/03/22 10:14:26;;;;;;;2.03;1.42;;;19.80;99.90;;;;;;5079047;28;21198;-76
2024/03/22 10:16:53;;;;;;;1.58;1.40;;;19.80;99.90;;;;;;5079831;28;20226;-76
2024/03/22 10:19:20;;;;;;;2.05;1.50;;;19.70;99.90;;;;;;5075076;28;20259;-74
2024/03/22 10:21:47;;;;;;;1.63;1.48;;;19.60;99.90;;;;;;5080506;28;20771;-76
2024/03/22 10:24:15;;;;;;;2.15;1.70;;;19.60;99.90;;;;;;5088005;28;20203;-75
2024/03/22 10:26:41;;;;;;;2.83;1.65;;;19.60;99.90;;;;;;5078499;28;20316;-75
2024/03/22 10:29:09;;;;;;;1.50;1.40;;;19.50;99.90;;;;;;5080597;28;20307;-76
2024/03/22 10:31:35;;;;;;;1.45;1.27;;;19.70;99.90;;;;;;5078470;28;20759;-75
2024/03/22 10:34:04;;;;;;;2.20;1.40;;;19.90;99.90;;;;;;5080894;28;20213;-77
2024/03/22 10:36:33;;;;;;;2.72;1.67;;;19.80;99.90;;;;;;5081592;28;20232;-77
2024/03/22 10:39:01;;;;;;;1.83;1.73;;;19.60;99.90;;;;;;5088649;28;20275;-76
2024/03/22 10:41:28;;;;;;;1.55;1.45;;;19.70;99.90;;;;;;5080727;28;20225;-75
2024/03/22 10:43:56;;;;;;;2.10;1.52;;;19.90;99.90;;;;;;5083805;28;20213;-75
2024/03/22 10:46:27;;;;;;;2.30;1.55;;;20.20;99.90;;;;;;5081664;28;20225;-77
2024/03/22 10:48:56;;;;;;;2.40;1.40;;;20.60;99.90;;;;;;5084497;28;20217;-77
2024/03/22 10:51:23;;;;;;;2.72;1.40;;;20.50;99.90;;;;;;5084079;28;20249;-74
2024/03/22 10:53:52;;;;;;;2.65;1.40;;;20.60;99.90;;;;;;5077569;28;20706;-78
2024/03/22 10:56:19;;;;;;;2.65;1.30;;;20.70;99.90;;;;;;5076948;28;21750;-78
2024/03/22 10:58:52;;;;;;;1.40;1.30;;;20.90;99.90;;;;;;5076889;28;20595;-77
2024/03/22 11:01:25;;;;;;;1.35;1.25;;;20.80;99.90;;;;;;5075887;28;20858;-76
2024/03/22 11:04:03;;;;;;;1.80;1.27;;;20.80;99.90;;;;;;5085506;28;21956;-77
2024/03/22 11:06:31;;;;;;;1.25;1.15;;;20.90;99.90;;;;;;5081055;28;20658;-77
2024/03/22 11:09:01;;;;;;;1.45;1.23;;;20.80;99.90;;;;;;5075311;28;20218;-77
2024/03/22 11:11:29;;;;;;;1.30;1.20;;;20.90;99.90;;;;;;5076581;28;20235;-77
2024/03/22 11:13:57;;;;;;;1.60;1.50;;;20.90;99.90;;;;;;5078731;28;20209;-77
2024/03/22 11:16:24;;;;;;;1.40;1.30;;;20.90;99.90;;;;;;5082272;28;20233;-77
2024/03/22 11:18:51;;;;;;;2.47;1.25;;;20.80;99.90;;;;;;5080790;28;20209;-77
2024/03/22 11:21:17;;;;;;;1.10;1.10;;;20.70;99.90;;;;;;5083584;28;20233;-77
2024/03/22 11:23:47;;;;;;;1.92;1.45;;;20.80;99.90;;;;;;5083074;28;20296;-76
2024/03/22 11:26:13;;;;;;;1.60;1.13;;;20.70;99.90;;;;;;5074674;28;20242;-78
2024/03/22 11:28:40;;;;;;;1.55;1.45;;;20.80;99.90;;;;;;5078308;28;20763;-76
2024/03/22 11:31:07;;;;;;;2.53;1.35;;;20.90;99.90;;;;;;5076162;28;20257;-77
2024/03/22 11:33:34;;;;;;;2.20;1.15;;;21.00;99.90;;;;;;5074361;28;20215;-76
2024/03/22 11:36:01;;;;;;;2.80;1.27;;;21.10;99.90;;;;;;5075700;28;20258;-77
2024/03/22 11:38:30;;;;;;;1.60;1.30;;;21.40;99.90;;;;;;5084105;28;20224;-79
2024/03/22 11:40:59;;;;;;;3.67;1.20;;;21.60;99.90;;;;;;5084238;28;20914;-76
2024/03/22 11:43:27;;;;;;;1.40;1.20;;;21.60;99.90;;;;;;5078545;28;20773;-77
2024/03/22 11:45:53;;;;;;;2.35;1.30;;;21.60;99.90;;;;;;5081441;28;20217;-77
2024/03/22 11:48:22;;;;;;;1.40;1.30;;;21.50;99.90;;;;;;5059989;28;20225;-77
2024/03/22 11:50:48;;;;;;;1.30;1.20;;;21.40;99.90;;;;;;5065219;28;20237;-76
2024/03/22 11:53:17;;;;;;;2.90;1.30;;;21.40;99.90;;;;;;5061109;28;20206;-75
2024/03/22 11:55:43;;;;;;;2.67;1.63;;;21.50;99.90;;;;;;5064976;28;20270;-76
2024/03/22 11:58:10;;;;;;;1.55;1.38;;;21.60;99.90;;;;;;5074976;28;20249;-77
2024/03/22 12:00:36;;;;;;;1.23;1.13;;;21.60;99.90;;;;;;5097233;28;20247;-77
2024/03/22 12:03:06;;;;;;;1.00;1.00;;;21.60;99.90;;;;;;5083960;28;20240;-77
2024/03/22 12:05:33;;;;;;;2.25;1.10;;;21.60;99.90;;;;;;5086691;28;20218;-77
2024/03/22 12:08:00;;;;;;;1.40;1.30;;;21.70;99.90;;;;;;5080346;28;20299;-77
2024/03/22 12:10:26;;;;;;;1.15;1.05;;;21.80;99.30;;;;;;5079325;28;20306;-75
2024/03/22 12:12:55;;;;;;;0.90;0.90;;;21.70;99.70;;;;;;5080906;28;20768;-77
2024/03/22 12:15:21;;;;;;;1.40;1.25;;;21.70;99.70;;;;;;5074246;28;20835;-77
2024/03/22 12:17:48;;;;;;;1.20;1.00;;;21.70;97.10;;;;;;5085360;28;20220;-76
2024/03/22 12:20:15;;;;;;;1.15;1.00;;;21.50;98.60;;;;;;5084510;28;20245;-77
2024/03/22 12:22:43;;;;;;;1.05;0.95;;;21.50;95.80;;;;;;5084319;28;20221;-77
2024/03/22 12:25:11;;;;;;;0.95;0.90;;;21.60;95.30;;;;;;5076827;28;20221;-77
2024/03/22 12:27:39;;;;;;;1.10;1.00;;;21.60;93.90;;;;;;5070949;28;20728;-76
2024/03/22 12:30:06;;;;;;;1.45;1.10;;;21.60;92.60;;;;;;5090864;28;20224;-77
2024/03/22 12:32:35;;;;;;;1.23;1.00;;;21.60;92.30;;;;;;5086579;28;20217;-76
2024/03/22 12:35:01;;;;;;;0.93;0.93;;;21.70;93.50;;;;;;5069603;28;20220;-78
2024/03/22 12:37:28;;;;;;;0.95;0.95;;;21.90;93.90;;;;;;5070315;28;20360;-76
2024/03/22 12:39:56;;;;;;;1.15;1.05;;;22.20;93.40;;;;;;5061591;28;20651;-77
2024/03/22 12:42:23;;;;;;;0.85;0.85;;;22.30;92.60;;;;;;5069075;28;20241;-76
2024/03/22 12:44:49;;;;;;;1.00;1.00;;;22.20;93.30;;;;;;5068798;28;20206;-77
2024/03/22 12:47:16;;;;;;;1.10;1.00;;;22.10;93.50;;;;;;5070583;28;20214;-77